METAR Formatted Surface Weather Observation
Issued by NWS

Current Version | Previous Version | Text Only | Print | Product List | Glossary On
Versions: 1
000
SAUS43 KUNR 022054
MTRCUT
METAR KCUT 022053Z AUTO 10009KT 10SM FEW100 24/09 A3014 RMK AO2
SLP131 T02390094 50006 TSNO



USA.gov is the U.S. government's official web portal to all federal, state and local government web resources and services.